sensor_id;sensor_type;location;lat;lon;timestamp;temperature;humidity
18662;DHT22;61528;49.456;11.098;2022-10-15T04:52:39;13.90;99.90
18662;DHT22;61528;49.456;11.098;2022-10-15T04:55:05;14.00;99.90
18662;DHT22;61528;49.456;11.098;2022-10-15T04:57:31;14.00;99.90
18662;DHT22;61528;49.456;11.098;2022-10-15T04:59:57;14.00;99.90
18662;DHT22;61528;49.456;11.098;2022-10-15T05:02:24;14.00;99.90
18662;DHT22;61528;49.456;11.098;2022-10-15T05:04:49;13.90;99.90
18662;DHT22;61528;49.456;11.098;2022-10-15T05:07:15;14.00;99.90
18662;DHT22;61528;49.456;11.098;2022-10-15T05:09:41;14.00;99.90
18662;DHT22;61528;49.456;11.098;2022-10-15T05:12:07;13.90;99.90
18662;DHT22;61528;49.456;11.098;2022-10-15T05:14:33;14.00;99.90
18662;DHT22;61528;49.456;11.098;2022-10-15T05:17:00;13.90;99.90
18662;DHT22;61528;49.456;11.098;2022-10-15T05:19:25;13.90;99.90
18662;DHT22;61528;49.456;11.098;2022-10-15T05:21:51;13.90;99.90
18662;DHT22;61528;49.456;11.098;2022-10-15T05:24:17;13.90;99.90
18662;DHT22;61528;49.456;11.098;2022-10-15T05:26:43;13.90;99.90
18662;DHT22;61528;49.456;11.098;2022-10-15T05:29:09;13.90;99.90
18662;DHT22;61528;49.456;11.098;2022-10-15T05:31:35;13.90;99.90
18662;DHT22;61528;49.456;11.098;2022-10-15T05:34:06;13.90;99.90
18662;DHT22;61528;49.456;11.098;2022-10-15T05:36:33;13.90;99.90
18662;DHT22;61528;49.456;11.098;2022-10-15T05:39:00;13.90;99.90
18662;DHT22;61528;49.456;11.098;2022-10-15T05:41:27;13.90;99.90
18662;DHT22;61528;49.456;11.098;2022-10-15T05:43:54;13.90;99.90
18662;DHT22;61528;49.456;11.098;2022-10-15T05:46:20;14.00;99.90
18662;DHT22;61528;49.456;11.098;2022-10-15T05:48:48;14.00;99.90
18662;DHT22;61528;49.456;11.098;2022-10-15T05:51:14;14.00;99.90
18662;DHT22;61528;49.456;11.098;2022-10-15T05:53:40;14.00;99.90
18662;DHT22;61528;49.456;11.098;2022-10-15T05:56:08;14.00;99.90
18662;DHT22;61528;49.456;11.098;2022-10-15T05:58:35;14.00;99.90
18662;DHT22;61528;49.456;11.098;2022-10-15T06:01:05;14.00;99.90
18662;DHT22;61528;49.456;11.098;2022-10-15T06:03:31;14.00;99.90
18662;DHT22;61528;49.456;11.098;2022-10-15T06:05:57;14.00;99.90
18662;DHT22;61528;49.456;11.098;2022-10-15T06:08:23;14.00;99.90
18662;DHT22;61528;49.456;11.098;2022-10-15T06:10:49;14.00;99.90
18662;DHT22;61528;49.456;11.098;2022-10-15T06:13:15;14.00;99.90
18662;DHT22;61528;49.456;11.098;2022-10-15T06:15:43;14.00;99.90
18662;DHT22;61528;49.456;11.098;2022-10-15T06:18:10;14.10;99.90
18662;DHT22;61528;49.456;11.098;2022-10-15T06:20:37;14.00;99.90
18662;DHT22;61528;49.456;11.098;2022-10-15T06:23:04;14.10;99.90
18662;DHT22;61528;49.456;11.098;2022-10-15T06:25:30;14.10;99.90
18662;DHT22;61528;49.456;11.098;2022-10-15T06:28:00;14.10;99.90
18662;DHT22;61528;49.456;11.098;2022-10-15T06:30:27;14.10;99.90
18662;DHT22;61528;49.456;11.098;2022-10-15T06:32:53;14.10;99.90
18662;DHT22;61528;49.456;11.098;2022-10-15T06:35:20;14.20;99.90
18662;DHT22;61528;49.456;11.098;2022-10-15T06:37:47;14.20;99.90
18662;DHT22;61528;49.456;11.098;2022-10-15T06:40:13;14.20;99.90
18662;DHT22;61528;49.456;11.098;2022-10-15T06:42:39;14.20;99.90
18662;DHT22;61528;49.456;11.098;2022-10-15T06:45:06;14.30;99.90
18662;DHT22;61528;49.456;11.098;2022-10-15T06:47:33;14.30;99.90
18662;DHT22;61528;49.456;11.098;2022-10-15T06:49:58;14.30;99.90
18662;DHT22;61528;49.456;11.098;2022-10-15T06:52:25;14.30;99.90
18662;DHT22;61528;49.456;11.098;2022-10-15T06:54:51;14.40;99.90
18662;DHT22;61528;49.456;11.098;2022-10-15T06:57:16;14.40;99.90
18662;DHT22;61528;49.456;11.098;2022-10-15T06:59:42;14.40;99.90
18662;DHT22;61528;49.456;11.098;2022-10-15T07:02:09;14.50;99.90
18662;DHT22;61528;49.456;11.098;2022-10-15T07:04:35;14.50;99.90
18662;DHT22;61528;49.456;11.098;2022-10-15T07:07:01;14.50;99.90
18662;DHT22;61528;49.456;11.098;2022-10-15T07:09:27;14.50;99.90
18662;DHT22;61528;49.456;11.098;2022-10-15T07:11:53;14.60;99.90
18662;DHT22;61528;49.456;11.098;2022-10-15T07:14:18;14.50;99.90
18662;DHT22;61528;49.456;11.098;2022-10-15T07:19:10;14.60;99.90
18662;DHT22;61528;49.456;11.098;2022-10-15T07:21:36;14.60;99.90
18662;DHT22;61528;49.456;11.098;2022-10-15T07:24:02;14.60;99.90
18662;DHT22;61528;49.456;11.098;2022-10-15T07:26:28;14.60;99.90
18662;DHT22;61528;49.456;11.098;2022-10-15T07:28:55;14.60;99.90
18662;DHT22;61528;49.456;11.098;2022-10-15T07:31:21;14.60;99.90
18662;DHT22;61528;49.456;11.098;2022-10-15T07:33:47;14.70;99.90
18662;DHT22;61528;49.456;11.098;2022-10-15T07:36:13;14.70;99.90
18662;DHT22;61528;49.456;11.098;2022-10-15T07:38:39;14.70;99.90
18662;DHT22;61528;49.456;11.098;2022-10-15T07:43:33;14.70;99.90
18662;DHT22;61528;49.456;11.098;2022-10-15T07:45:59;14.70;99.90
18662;DHT22;61528;49.456;11.098;2022-10-15T07:48:25;14.70;99.90
18662;DHT22;61528;49.456;11.098;2022-10-15T07:50:58;14.70;99.90
18662;DHT22;61528;49.456;11.098;2022-10-15T07:53:25;14.80;99.90
18662;DHT22;61528;49.456;11.098;2022-10-15T07:55:50;14.80;99.90
18662;DHT22;61528;49.456;11.098;2022-10-15T07:58:16;14.80;99.90
18662;DHT22;61528;49.456;11.098;2022-10-15T08:00:42;14.90;99.90
18662;DHT22;61528;49.456;11.098;2022-10-15T08:03:08;14.90;99.90
18662;DHT22;61528;49.456;11.098;2022-10-15T08:05:34;14.90;99.90
18662;DHT22;61528;49.456;11.098;2022-10-15T08:08:00;14.90;99.90
18662;DHT22;61528;49.456;11.098;2022-10-15T08:10:26;15.00;99.90
18662;DHT22;61528;49.456;11.098;2022-10-15T08:12:52;15.00;99.90
18662;DHT22;61528;49.456;11.098;2022-10-15T08:15:18;15.00;99.90
18662;DHT22;61528;49.456;11.098;2022-10-15T08:17:44;15.10;99.90
18662;DHT22;61528;49.456;11.098;2022-10-15T08:20:10;15.10;99.90
18662;DHT22;61528;49.456;11.098;2022-10-15T08:22:37;15.10;99.90
18662;DHT22;61528;49.456;11.098;2022-10-15T08:25:03;15.20;99.90
18662;DHT22;61528;49.456;11.098;2022-10-15T08:27:29;15.20;99.90
18662;DHT22;61528;49.456;11.098;2022-10-15T08:29:54;15.20;99.90
18662;DHT22;61528;49.456;11.098;2022-10-15T08:32:20;15.30;99.90
18662;DHT22;61528;49.456;11.098;2022-10-15T08:34:46;16.70;99.90
18662;DHT22;61528;49.456;11.098;2022-10-15T08:37:11;15.40;99.90
18662;DHT22;61528;49.456;11.098;2022-10-15T08:39:37;15.50;99.90
18662;DHT22;61528;49.456;11.098;2022-10-15T08:42:24;15.50;99.90
18662;DHT22;61528;49.456;11.098;2022-10-15T08:45:06;15.60;99.90
18662;DHT22;61528;49.456;11.098;2022-10-15T08:50:27;15.50;99.90
18662;DHT22;61528;49.456;11.098;2022-10-15T08:52:59;15.50;99.90
18662;DHT22;61528;49.456;11.098;2022-10-15T08:55:32;15.50;99.90
18662;DHT22;61528;49.456;11.098;2022-10-15T08:58:12;15.60;99.90
18662;DHT22;61528;49.456;11.098;2022-10-15T09:01:05;15.60;99.90
18662;DHT22;61528;49.456;11.098;2022-10-15T09:04:15;15.60;99.90
18662;DHT22;61528;49.456;11.098;2022-10-15T09:06:38;15.60;99.90
18662;DHT22;61528;49.456;11.098;2022-10-15T09:09:13;15.60;99.90
18662;DHT22;61528;49.456;11.098;2022-10-15T09:14:33;15.60;99.90
18662;DHT22;61528;49.456;11.098;2022-10-15T09:17:15;15.60;99.90
18662;DHT22;61528;49.456;11.098;2022-10-15T09:19:43;15.60;99.90
18662;DHT22;61528;49.456;11.098;2022-10-15T09:22:14;15.70;99.90
18662;DHT22;61528;49.456;11.098;2022-10-15T09:24:41;15.70;99.90
18662;DHT22;61528;49.456;11.098;2022-10-15T09:27:32;15.70;99.90
18662;DHT22;61528;49.456;11.098;2022-10-15T09:33:10;15.80;99.90
18662;DHT22;61528;49.456;11.098;2022-10-15T09:35:46;15.80;99.90
18662;DHT22;61528;49.456;11.098;2022-10-15T09:38:40;15.90;99.90
18662;DHT22;61528;49.456;11.098;2022-10-15T09:43:50;15.90;99.90
18662;DHT22;61528;49.456;11.098;2022-10-15T09:46:17;16.00;99.90
18662;DHT22;61528;49.456;11.098;2022-10-15T09:56:49;16.10;99.90
18662;DHT22;61528;49.456;11.098;2022-10-15T09:59:17;16.20;99.90
18662;DHT22;61528;49.456;11.098;2022-10-15T10:04:31;16.30;99.90
18662;DHT22;61528;49.456;11.098;2022-10-15T10:07:00;16.30;99.90
18662;DHT22;61528;49.456;11.098;2022-10-15T10:17:17;16.40;99.90
18662;DHT22;61528;49.456;11.098;2022-10-15T10:19:45;16.40;99.90
18662;DHT22;61528;49.456;11.098;2022-10-15T10:22:17;16.30;99.90
18662;DHT22;61528;49.456;11.098;2022-10-15T10:24:44;16.30;99.90
18662;DHT22;61528;49.456;11.098;2022-10-15T10:27:20;16.40;99.90
18662;DHT22;61528;49.456;11.098;2022-10-15T10:29:50;16.40;99.90
18662;DHT22;61528;49.456;11.098;2022-10-15T10:32:22;16.40;99.90
18662;DHT22;61528;49.456;11.098;2022-10-15T10:34:49;16.50;99.90
18662;DHT22;61528;49.456;11.098;2022-10-15T10:37:15;16.50;99.90
18662;DHT22;61528;49.456;11.098;2022-10-15T10:39:41;16.50;99.90
18662;DHT22;61528;49.456;11.098;2022-10-15T10:44:44;16.60;99.90
18662;DHT22;61528;49.456;11.098;2022-10-15T10:47:17;16.60;99.90
18662;DHT22;61528;49.456;11.098;2022-10-15T10:49:48;16.60;99.90
18662;DHT22;61528;49.456;11.098;2022-10-15T10:52:24;16.60;99.90
18662;DHT22;61528;49.456;11.098;2022-10-15T10:57:33;16.70;99.90
18662;DHT22;61528;49.456;11.098;2022-10-15T11:00:04;16.80;99.90
18662;DHT22;61528;49.456;11.098;2022-10-15T11:02:32;16.90;99.90
18662;DHT22;61528;49.456;11.098;2022-10-15T11:05:00;17.00;99.90
18662;DHT22;61528;49.456;11.098;2022-10-15T11:10:17;17.30;99.90
18662;DHT22;61528;49.456;11.098;2022-10-15T11:13:32;17.40;99.90
18662;DHT22;61528;49.456;11.098;2022-10-15T11:32:00;17.50;99.90
18662;DHT22;61528;49.456;11.098;2022-10-15T11:37:32;17.50;99.90
18662;DHT22;61528;49.456;11.098;2022-10-15T11:42:54;17.50;99.90
18662;DHT22;61528;49.456;11.098;2022-10-15T11:45:27;17.50;99.90
18662;DHT22;61528;49.456;11.098;2022-10-15T11:48:20;17.50;99.90
18662;DHT22;61528;49.456;11.098;2022-10-15T11:54:43;17.50;99.90
18662;DHT22;61528;49.456;11.098;2022-10-15T11:56:51;17.50;99.90
18662;DHT22;61528;49.456;11.098;2022-10-15T12:02:30;17.50;99.90
18662;DHT22;61528;49.456;11.098;2022-10-15T12:15:38;17.50;99.90
18662;DHT22;61528;49.456;11.098;2022-10-15T12:18:30;17.50;99.90
18662;DHT22;61528;49.456;11.098;2022-10-15T12:20:59;17.50;99.90
18662;DHT22;61528;49.456;11.098;2022-10-15T12:28:50;17.50;99.90
18662;DHT22;61528;49.456;11.098;2022-10-15T12:31:17;17.60;99.90
18662;DHT22;61528;49.456;11.098;2022-10-15T12:33:51;17.50;99.90
18662;DHT22;61528;49.456;11.098;2022-10-15T12:36:28;17.50;99.90
18662;DHT22;61528;49.456;11.098;2022-10-15T12:41:41;17.50;99.90
18662;DHT22;61528;49.456;11.098;2022-10-15T12:44:29;17.40;99.90
18662;DHT22;61528;49.456;11.098;2022-10-15T12:46:53;17.50;99.90
18662;DHT22;61528;49.456;11.098;2022-10-15T12:51:59;17.50;99.90
18662;DHT22;61528;49.456;11.098;2022-10-15T12:57:00;17.60;99.90
18662;DHT22;61528;49.456;11.098;2022-10-15T13:00:25;17.60;99.90
18662;DHT22;61528;49.456;11.098;2022-10-15T13:02:43;17.70;99.90
18662;DHT22;61528;49.456;11.098;2022-10-15T13:05:33;17.80;99.90
18662;DHT22;61528;49.456;11.098;2022-10-15T13:08:01;17.80;99.90
18662;DHT22;61528;49.456;11.098;2022-10-15T13:10:32;17.70;99.90
18662;DHT22;61528;49.456;11.098;2022-10-15T13:13:02;17.80;99.90
18662;DHT22;61528;49.456;11.098;2022-10-15T13:15:30;17.70;99.90
18662;DHT22;61528;49.456;11.098;2022-10-15T13:18:06;17.60;99.90
18662;DHT22;61528;49.456;11.098;2022-10-15T13:20:38;17.60;99.90
18662;DHT22;61528;49.456;11.098;2022-10-15T13:25:42;17.70;99.90
18662;DHT22;61528;49.456;11.098;2022-10-15T13:28:33;17.80;99.90
18662;DHT22;61528;49.456;11.098;2022-10-15T13:31:22;18.00;99.90
18662;DHT22;61528;49.456;11.098;2022-10-15T13:33:54;18.10;99.90
18662;DHT22;61528;49.456;11.098;2022-10-15T13:36:31;18.20;99.90
18662;DHT22;61528;49.456;11.098;2022-10-15T13:39:07;18.40;99.90
18662;DHT22;61528;49.456;11.098;2022-10-15T13:41:45;18.60;99.90
18662;DHT22;61528;49.456;11.098;2022-10-15T13:44:22;18.70;99.90
18662;DHT22;61528;49.456;11.098;2022-10-15T13:46:48;18.80;99.90
18662;DHT22;61528;49.456;11.098;2022-10-15T13:49:17;18.80;99.90
18662;DHT22;61528;49.456;11.098;2022-10-15T13:51:46;18.70;99.90
18662;DHT22;61528;49.456;11.098;2022-10-15T13:54:20;18.60;99.90
18662;DHT22;61528;49.456;11.098;2022-10-15T13:56:58;18.60;99.90
18662;DHT22;61528;49.456;11.098;2022-10-15T13:59:27;18.50;99.90
18662;DHT22;61528;49.456;11.098;2022-10-15T14:01:56;18.40;99.90
18662;DHT22;61528;49.456;11.098;2022-10-15T14:04:29;18.40;99.90
18662;DHT22;61528;49.456;11.098;2022-10-15T14:07:00;18.40;99.90
18662;DHT22;61528;49.456;11.098;2022-10-15T14:09:34;18.40;99.90
18662;DHT22;61528;49.456;11.098;2022-10-15T14:12:04;18.40;99.90
18662;DHT22;61528;49.456;11.098;2022-10-15T14:14:39;18.40;99.90
18662;DHT22;61528;49.456;11.098;2022-10-15T14:17:28;18.50;99.90
18662;DHT22;61528;49.456;11.098;2022-10-15T14:19:55;18.60;99.90
18662;DHT22;61528;49.456;11.098;2022-10-15T14:22:23;18.60;99.90
18662;DHT22;61528;49.456;11.098;2022-10-15T14:24:51;18.70;99.90
18662;DHT22;61528;49.456;11.098;2022-10-15T14:27:21;18.60;99.90
18662;DHT22;61528;49.456;11.098;2022-10-15T14:29:52;18.60;99.90
18662;DHT22;61528;49.456;11.098;2022-10-15T14:32:28;18.60;99.90
18662;DHT22;61528;49.456;11.098;2022-10-15T14:34:57;18.50;99.90
18662;DHT22;61528;49.456;11.098;2022-10-15T14:42:33;18.60;99.90
18662;DHT22;61528;49.456;11.098;2022-10-15T14:45:12;18.60;99.90
18662;DHT22;61528;49.456;11.098;2022-10-15T14:47:49;18.60;99.90
18662;DHT22;61528;49.456;11.098;2022-10-15T14:50:17;18.60;99.90
18662;DHT22;61528;49.456;11.098;2022-10-15T14:52:46;18.60;99.90
18662;DHT22;61528;49.456;11.098;2022-10-15T14:55:31;18.50;99.90
18662;DHT22;61528;49.456;11.098;2022-10-15T14:58:07;18.50;99.90
18662;DHT22;61528;49.456;11.098;2022-10-15T15:00:40;18.50;99.90
18662;DHT22;61528;49.456;11.098;2022-10-15T15:03:12;18.50;99.90
18662;DHT22;61528;49.456;11.098;2022-10-15T15:05:50;18.60;99.90
18662;DHT22;61528;49.456;11.098;2022-10-15T15:08:17;18.70;99.90
18662;DHT22;61528;49.456;11.098;2022-10-15T15:10:44;18.70;99.90
18662;DHT22;61528;49.456;11.098;2022-10-15T15:13:14;18.70;99.90
18662;DHT22;61528;49.456;11.098;2022-10-15T15:15:43;18.70;99.90
18662;DHT22;61528;49.456;11.098;2022-10-15T15:18:12;18.60;99.90
18662;DHT22;61528;49.456;11.098;2022-10-15T15:20:40;18.60;99.90
18662;DHT22;61528;49.456;11.098;2022-10-15T15:23:11;18.50;99.90
18662;DHT22;61528;49.456;11.098;2022-10-15T15:25:39;18.50;99.90
18662;DHT22;61528;49.456;11.098;2022-10-15T15:28:14;18.50;99.90
18662;DHT22;61528;49.456;11.098;2022-10-15T15:30:42;18.40;99.90
18662;DHT22;61528;49.456;11.098;2022-10-15T15:33:14;18.40;99.90
18662;DHT22;61528;49.456;11.098;2022-10-15T15:36:01;18.40;99.90
18662;DHT22;61528;49.456;11.098;2022-10-15T15:38:27;18.30;99.90
18662;DHT22;61528;49.456;11.098;2022-10-15T15:41:16;18.30;99.90
18662;DHT22;61528;49.456;11.098;2022-10-15T15:43:43;18.30;99.90
18662;DHT22;61528;49.456;11.098;2022-10-15T15:46:10;18.30;99.90
18662;DHT22;61528;49.456;11.098;2022-10-15T15:48:36;18.20;99.90
18662;DHT22;61528;49.456;11.098;2022-10-15T15:51:15;18.20;99.90
18662;DHT22;61528;49.456;11.098;2022-10-15T15:53:44;18.20;99.90
18662;DHT22;61528;49.456;11.098;2022-10-15T15:56:10;18.20;99.90
18662;DHT22;61528;49.456;11.098;2022-10-15T15:58:36;18.10;99.90
18662;DHT22;61528;49.456;11.098;2022-10-15T16:01:02;18.10;99.90
18662;DHT22;61528;49.456;11.098;2022-10-15T16:03:28;18.10;99.90
18662;DHT22;61528;49.456;11.098;2022-10-15T16:05:54;18.10;99.90
18662;DHT22;61528;49.456;11.098;2022-10-15T16:08:20;18.00;99.90
18662;DHT22;61528;49.456;11.098;2022-10-15T16:10:46;18.00;99.90
18662;DHT22;61528;49.456;11.098;2022-10-15T16:13:12;18.00;99.90
18662;DHT22;61528;49.456;11.098;2022-10-15T16:15:38;18.00;99.90
18662;DHT22;61528;49.456;11.098;2022-10-15T16:18:04;18.00;99.90
18662;DHT22;61528;49.456;11.098;2022-10-15T16:20:29;18.00;99.90
18662;DHT22;61528;49.456;11.098;2022-10-15T16:22:55;18.00;99.90
18662;DHT22;61528;49.456;11.098;2022-10-15T16:25:21;18.00;99.90
18662;DHT22;61528;49.456;11.098;2022-10-15T16:27:47;17.90;99.90
18662;DHT22;61528;49.456;11.098;2022-10-15T16:30:14;17.90;99.90
18662;DHT22;61528;49.456;11.098;2022-10-15T16:32:41;17.90;99.90
18662;DHT22;61528;49.456;11.098;2022-10-15T16:35:07;17.90;99.90
18662;DHT22;61528;49.456;11.098;2022-10-15T16:37:33;17.90;99.90
18662;DHT22;61528;49.456;11.098;2022-10-15T16:39:59;17.90;99.90
18662;DHT22;61528;49.456;11.098;2022-10-15T16:42:25;17.80;99.90
18662;DHT22;61528;49.456;11.098;2022-10-15T16:44:51;17.80;99.90
18662;DHT22;61528;49.456;11.098;2022-10-15T16:47:18;17.70;99.90
18662;DHT22;61528;49.456;11.098;2022-10-15T16:49:44;17.70;99.90
18662;DHT22;61528;49.456;11.098;2022-10-15T16:52:10;17.70;99.90
18662;DHT22;61528;49.456;11.098;2022-10-15T16:54:37;17.70;99.90
18662;DHT22;61528;49.456;11.098;2022-10-15T16:57:03;17.70;99.90
18662;DHT22;61528;49.456;11.098;2022-10-15T16:59:29;17.60;99.90
